sensor_id;sensor_type;location;lat;lon;timestamp;P1;durP1;ratioP1;P2;durP2;ratioP2
39846;SDS011;25517;52.422;10.782;2024-03-08T00:01:59;42.58;;;18.65;;
39846;SDS011;25517;52.422;10.782;2024-03-08T00:04:25;42.65;;;19.10;;
39846;SDS011;25517;52.422;10.782;2024-03-08T00:06:50;40.58;;;19.58;;
39846;SDS011;25517;52.422;10.782;2024-03-08T00:09:16;35.55;;;19.13;;
39846;SDS011;25517;52.422;10.782;2024-03-08T00:11:41;38.28;;;19.77;;
39846;SDS011;25517;52.422;10.782;2024-03-08T00:14:07;38.45;;;18.65;;
39846;SDS011;25517;52.422;10.782;2024-03-08T00:16:33;35.58;;;17.30;;
39846;SDS011;25517;52.422;10.782;2024-03-08T00:19:00;35.60;;;19.23;;
39846;SDS011;25517;52.422;10.782;2024-03-08T00:21:25;33.25;;;17.23;;
39846;SDS011;25517;52.422;10.782;2024-03-08T00:23:52;35.50;;;18.98;;
39846;SDS011;25517;52.422;10.782;2024-03-08T00:26:19;38.47;;;19.25;;
39846;SDS011;25517;52.422;10.782;2024-03-08T00:28:47;44.67;;;20.30;;
39846;SDS011;25517;52.422;10.782;2024-03-08T00:31:13;40.58;;;19.48;;
39846;SDS011;25517;52.422;10.782;2024-03-08T00:33:40;38.60;;;18.92;;
39846;SDS011;25517;52.422;10.782;2024-03-08T00:36:06;39.25;;;18.10;;
39846;SDS011;25517;52.422;10.782;2024-03-08T00:38:32;38.58;;;18.55;;
39846;SDS011;25517;52.422;10.782;2024-03-08T00:40:59;34.85;;;18.63;;
39846;SDS011;25517;52.422;10.782;2024-03-08T00:43:24;41.28;;;18.90;;
39846;SDS011;25517;52.422;10.782;2024-03-08T00:45:50;38.03;;;18.73;;
39846;SDS011;25517;52.422;10.782;2024-03-08T00:48:16;36.92;;;18.45;;
39846;SDS011;25517;52.422;10.782;2024-03-08T00:50:41;41.30;;;19.42;;
39846;SDS011;25517;52.422;10.782;2024-03-08T00:53:10;43.33;;;19.27;;
39846;SDS011;25517;52.422;10.782;2024-03-08T00:55:36;38.60;;;19.77;;
39846;SDS011;25517;52.422;10.782;2024-03-08T00:58:03;33.75;;;17.70;;
39846;SDS011;25517;52.422;10.782;2024-03-08T01:00:28;36.60;;;17.65;;
39846;SDS011;25517;52.422;10.782;2024-03-08T01:02:54;48.58;;;18.63;;
39846;SDS011;25517;52.422;10.782;2024-03-08T01:05:20;36.00;;;18.50;;
39846;SDS011;25517;52.422;10.782;2024-03-08T01:07:46;43.05;;;20.05;;
39846;SDS011;25517;52.422;10.782;2024-03-08T01:10:12;40.70;;;19.40;;
39846;SDS011;25517;52.422;10.782;2024-03-08T01:12:38;42.30;;;21.67;;
39846;SDS011;25517;52.422;10.782;2024-03-08T01:15:04;40.70;;;19.70;;
39846;SDS011;25517;52.422;10.782;2024-03-08T01:17:30;34.13;;;17.35;;
39846;SDS011;25517;52.422;10.782;2024-03-08T01:19:56;35.70;;;18.17;;
39846;SDS011;25517;52.422;10.782;2024-03-08T01:22:21;41.45;;;20.42;;
39846;SDS011;25517;52.422;10.782;2024-03-08T01:24:47;42.47;;;19.45;;
39846;SDS011;25517;52.422;10.782;2024-03-08T01:27:13;39.72;;;19.85;;
39846;SDS011;25517;52.422;10.782;2024-03-08T01:29:39;41.47;;;18.00;;
39846;SDS011;25517;52.422;10.782;2024-03-08T01:32:05;43.45;;;20.10;;
39846;SDS011;25517;52.422;10.782;2024-03-08T01:34:31;37.40;;;18.35;;
39846;SDS011;25517;52.422;10.782;2024-03-08T01:36:58;41.88;;;20.25;;
39846;SDS011;25517;52.422;10.782;2024-03-08T01:39:24;38.33;;;18.45;;
39846;SDS011;25517;52.422;10.782;2024-03-08T01:41:50;43.83;;;20.15;;
39846;SDS011;25517;52.422;10.782;2024-03-08T01:44:15;40.08;;;18.52;;
39846;SDS011;25517;52.422;10.782;2024-03-08T01:46:45;40.78;;;19.98;;
39846;SDS011;25517;52.422;10.782;2024-03-08T01:49:12;26.20;;;14.02;;
39846;SDS011;25517;52.422;10.782;2024-03-08T01:51:38;42.25;;;20.40;;
39846;SDS011;25517;52.422;10.782;2024-03-08T01:54:06;42.95;;;20.05;;
39846;SDS011;25517;52.422;10.782;2024-03-08T01:56:35;42.63;;;21.15;;
39846;SDS011;25517;52.422;10.782;2024-03-08T01:59:02;46.05;;;20.92;;
39846;SDS011;25517;52.422;10.782;2024-03-08T02:01:28;37.83;;;19.58;;
39846;SDS011;25517;52.422;10.782;2024-03-08T02:03:54;42.03;;;20.23;;
39846;SDS011;25517;52.422;10.782;2024-03-08T02:06:19;40.42;;;20.23;;
39846;SDS011;25517;52.422;10.782;2024-03-08T02:08:45;40.28;;;19.02;;
39846;SDS011;25517;52.422;10.782;2024-03-08T02:11:11;43.88;;;19.75;;
39846;SDS011;25517;52.422;10.782;2024-03-08T02:13:37;38.40;;;18.35;;
39846;SDS011;25517;52.422;10.782;2024-03-08T02:16:03;44.83;;;19.85;;
39846;SDS011;25517;52.422;10.782;2024-03-08T02:18:29;39.28;;;19.35;;
39846;SDS011;25517;52.422;10.782;2024-03-08T02:20:56;39.47;;;19.63;;
39846;SDS011;25517;52.422;10.782;2024-03-08T02:23:22;42.83;;;20.92;;
39846;SDS011;25517;52.422;10.782;2024-03-08T02:25:50;40.40;;;19.48;;
39846;SDS011;25517;52.422;10.782;2024-03-08T02:28:16;36.92;;;19.75;;
39846;SDS011;25517;52.422;10.782;2024-03-08T02:30:43;47.75;;;21.55;;
39846;SDS011;25517;52.422;10.782;2024-03-08T02:33:12;39.78;;;20.08;;
39846;SDS011;25517;52.422;10.782;2024-03-08T02:35:45;40.05;;;19.08;;
39846;SDS011;25517;52.422;10.782;2024-03-08T02:38:11;43.30;;;20.90;;
39846;SDS011;25517;52.422;10.782;2024-03-08T02:40:38;53.20;;;22.35;;
39846;SDS011;25517;52.422;10.782;2024-03-08T02:43:03;40.95;;;20.50;;
39846;SDS011;25517;52.422;10.782;2024-03-08T02:45:30;42.88;;;21.33;;
39846;SDS011;25517;52.422;10.782;2024-03-08T02:47:55;40.67;;;21.20;;
39846;SDS011;25517;52.422;10.782;2024-03-08T02:50:21;44.85;;;21.83;;
39846;SDS011;25517;52.422;10.782;2024-03-08T02:52:47;46.65;;;21.15;;
39846;SDS011;25517;52.422;10.782;2024-03-08T02:55:13;43.63;;;19.00;;
39846;SDS011;25517;52.422;10.782;2024-03-08T02:57:41;42.88;;;20.58;;
39846;SDS011;25517;52.422;10.782;2024-03-08T03:00:07;45.03;;;21.05;;
39846;SDS011;25517;52.422;10.782;2024-03-08T03:02:34;45.42;;;21.75;;
39846;SDS011;25517;52.422;10.782;2024-03-08T03:04:59;47.13;;;23.17;;
39846;SDS011;25517;52.422;10.782;2024-03-08T03:09:55;41.30;;;20.80;;
39846;SDS011;25517;52.422;10.782;2024-03-08T03:12:21;48.47;;;22.95;;
39846;SDS011;25517;52.422;10.782;2024-03-08T03:14:47;57.88;;;21.88;;
39846;SDS011;25517;52.422;10.782;2024-03-08T03:17:13;50.33;;;22.38;;
39846;SDS011;25517;52.422;10.782;2024-03-08T03:19:40;47.45;;;22.60;;
39846;SDS011;25517;52.422;10.782;2024-03-08T03:22:07;47.30;;;23.15;;
39846;SDS011;25517;52.422;10.782;2024-03-08T03:24:34;41.78;;;21.02;;
39846;SDS011;25517;52.422;10.782;2024-03-08T03:27:03;45.08;;;22.88;;
39846;SDS011;25517;52.422;10.782;2024-03-08T03:29:35;43.25;;;21.13;;
39846;SDS011;25517;52.422;10.782;2024-03-08T03:32:01;41.78;;;21.30;;
39846;SDS011;25517;52.422;10.782;2024-03-08T03:34:28;51.38;;;21.73;;
39846;SDS011;25517;52.422;10.782;2024-03-08T03:36:54;55.80;;;24.33;;
39846;SDS011;25517;52.422;10.782;2024-03-08T03:39:20;45.60;;;22.42;;
39846;SDS011;25517;52.422;10.782;2024-03-08T03:41:47;47.97;;;22.75;;
39846;SDS011;25517;52.422;10.782;2024-03-08T03:44:16;46.05;;;24.42;;
39846;SDS011;25517;52.422;10.782;2024-03-08T03:46:42;47.92;;;21.75;;
39846;SDS011;25517;52.422;10.782;2024-03-08T03:49:09;49.45;;;23.45;;
39846;SDS011;25517;52.422;10.782;2024-03-08T03:51:34;50.28;;;24.70;;
39846;SDS011;25517;52.422;10.782;2024-03-08T03:54:00;49.58;;;23.67;;
39846;SDS011;25517;52.422;10.782;2024-03-08T03:56:26;42.20;;;20.92;;
39846;SDS011;25517;52.422;10.782;2024-03-08T03:58:51;43.17;;;21.20;;
39846;SDS011;25517;52.422;10.782;2024-03-08T04:01:17;49.50;;;23.83;;
39846;SDS011;25517;52.422;10.782;2024-03-08T04:03:42;47.05;;;23.77;;
39846;SDS011;25517;52.422;10.782;2024-03-08T04:06:08;46.95;;;22.88;;
39846;SDS011;25517;52.422;10.782;2024-03-08T04:08:34;52.05;;;23.90;;
39846;SDS011;25517;52.422;10.782;2024-03-08T04:11:00;48.70;;;23.13;;
39846;SDS011;25517;52.422;10.782;2024-03-08T04:13:25;46.83;;;25.17;;
39846;SDS011;25517;52.422;10.782;2024-03-08T04:15:51;47.65;;;23.60;;
39846;SDS011;25517;52.422;10.782;2024-03-08T04:18:17;48.20;;;23.67;;
39846;SDS011;25517;52.422;10.782;2024-03-08T04:20:43;44.30;;;23.17;;
39846;SDS011;25517;52.422;10.782;2024-03-08T04:23:08;47.88;;;23.80;;
39846;SDS011;25517;52.422;10.782;2024-03-08T04:25:34;45.08;;;22.30;;
39846;SDS011;25517;52.422;10.782;2024-03-08T04:27:59;55.72;;;26.02;;
39846;SDS011;25517;52.422;10.782;2024-03-08T04:30:25;52.30;;;25.88;;
39846;SDS011;25517;52.422;10.782;2024-03-08T04:32:53;50.45;;;24.33;;
39846;SDS011;25517;52.422;10.782;2024-03-08T04:35:19;50.88;;;23.02;;
39846;SDS011;25517;52.422;10.782;2024-03-08T04:37:45;47.50;;;23.23;;
39846;SDS011;25517;52.422;10.782;2024-03-08T04:40:11;50.88;;;23.95;;
39846;SDS011;25517;52.422;10.782;2024-03-08T04:42:36;52.17;;;23.45;;
39846;SDS011;25517;52.422;10.782;2024-03-08T04:45:04;47.42;;;23.45;;
39846;SDS011;25517;52.422;10.782;2024-03-08T04:47:30;54.42;;;23.42;;
39846;SDS011;25517;52.422;10.782;2024-03-08T04:49:55;50.25;;;23.90;;
39846;SDS011;25517;52.422;10.782;2024-03-08T04:52:22;52.28;;;24.73;;
39846;SDS011;25517;52.422;10.782;2024-03-08T04:54:47;51.10;;;24.98;;
39846;SDS011;25517;52.422;10.782;2024-03-08T04:57:13;52.10;;;25.48;;
39846;SDS011;25517;52.422;10.782;2024-03-08T04:59:39;45.83;;;23.48;;
39846;SDS011;25517;52.422;10.782;2024-03-08T05:02:04;46.50;;;23.95;;
39846;SDS011;25517;52.422;10.782;2024-03-08T05:04:32;49.75;;;24.35;;
39846;SDS011;25517;52.422;10.782;2024-03-08T05:06:57;46.28;;;22.02;;
39846;SDS011;25517;52.422;10.782;2024-03-08T05:09:26;54.20;;;25.48;;
39846;SDS011;25517;52.422;10.782;2024-03-08T05:11:54;55.45;;;24.98;;
39846;SDS011;25517;52.422;10.782;2024-03-08T05:14:19;56.97;;;24.70;;
39846;SDS011;25517;52.422;10.782;2024-03-08T05:16:45;50.45;;;24.33;;
39846;SDS011;25517;52.422;10.782;2024-03-08T05:19:15;46.47;;;23.80;;
39846;SDS011;25517;52.422;10.782;2024-03-08T05:21:42;52.33;;;24.63;;
39846;SDS011;25517;52.422;10.782;2024-03-08T05:24:11;49.97;;;25.17;;
39846;SDS011;25517;52.422;10.782;2024-03-08T05:26:38;57.40;;;25.95;;
39846;SDS011;25517;52.422;10.782;2024-03-08T05:29:03;51.70;;;25.75;;
39846;SDS011;25517;52.422;10.782;2024-03-08T05:31:30;52.58;;;24.83;;
39846;SDS011;25517;52.422;10.782;2024-03-08T05:34:01;48.63;;;24.98;;
39846;SDS011;25517;52.422;10.782;2024-03-08T05:36:26;52.65;;;23.55;;
39846;SDS011;25517;52.422;10.782;2024-03-08T05:38:52;57.22;;;25.50;;
39846;SDS011;25517;52.422;10.782;2024-03-08T05:41:17;53.13;;;25.70;;
39846;SDS011;25517;52.422;10.782;2024-03-08T05:43:44;53.35;;;24.90;;
39846;SDS011;25517;52.422;10.782;2024-03-08T05:46:10;53.33;;;24.42;;
39846;SDS011;25517;52.422;10.782;2024-03-08T05:48:36;58.83;;;26.63;;
39846;SDS011;25517;52.422;10.782;2024-03-08T05:51:02;59.67;;;26.75;;
39846;SDS011;25517;52.422;10.782;2024-03-08T05:53:28;57.30;;;25.25;;
39846;SDS011;25517;52.422;10.782;2024-03-08T05:55:57;52.88;;;25.83;;
39846;SDS011;25517;52.422;10.782;2024-03-08T05:58:23;56.00;;;25.95;;
39846;SDS011;25517;52.422;10.782;2024-03-08T06:00:49;48.72;;;24.52;;
39846;SDS011;25517;52.422;10.782;2024-03-08T06:03:15;58.03;;;27.27;;
39846;SDS011;25517;52.422;10.782;2024-03-08T06:05:40;57.60;;;26.88;;
39846;SDS011;25517;52.422;10.782;2024-03-08T06:08:07;59.95;;;28.30;;
39846;SDS011;25517;52.422;10.782;2024-03-08T06:10:32;56.42;;;26.63;;
39846;SDS011;25517;52.422;10.782;2024-03-08T06:12:59;56.85;;;25.83;;
39846;SDS011;25517;52.422;10.782;2024-03-08T06:15:25;54.63;;;26.48;;
39846;SDS011;25517;52.422;10.782;2024-03-08T06:17:50;54.80;;;27.10;;
39846;SDS011;25517;52.422;10.782;2024-03-08T06:20:17;60.45;;;27.73;;
39846;SDS011;25517;52.422;10.782;2024-03-08T06:22:43;61.72;;;28.60;;
39846;SDS011;25517;52.422;10.782;2024-03-08T06:25:10;58.97;;;27.05;;
39846;SDS011;25517;52.422;10.782;2024-03-08T06:27:38;56.60;;;26.60;;
39846;SDS011;25517;52.422;10.782;2024-03-08T06:30:07;50.45;;;24.10;;
39846;SDS011;25517;52.422;10.782;2024-03-08T06:32:34;52.65;;;25.27;;
39846;SDS011;25517;52.422;10.782;2024-03-08T06:35:04;57.72;;;26.80;;
39846;SDS011;25517;52.422;10.782;2024-03-08T06:37:31;58.42;;;25.13;;
39846;SDS011;25517;52.422;10.782;2024-03-08T06:39:57;56.05;;;27.85;;
39846;SDS011;25517;52.422;10.782;2024-03-08T06:42:23;56.00;;;26.27;;
39846;SDS011;25517;52.422;10.782;2024-03-08T06:44:48;47.88;;;24.25;;
39846;SDS011;25517;52.422;10.782;2024-03-08T06:47:17;55.83;;;24.80;;
39846;SDS011;25517;52.422;10.782;2024-03-08T06:49:43;52.95;;;25.40;;
39846;SDS011;25517;52.422;10.782;2024-03-08T06:52:09;54.08;;;26.92;;
39846;SDS011;25517;52.422;10.782;2024-03-08T06:54:35;65.88;;;29.25;;
39846;SDS011;25517;52.422;10.782;2024-03-08T06:57:01;56.42;;;27.67;;
39846;SDS011;25517;52.422;10.782;2024-03-08T06:59:30;53.17;;;25.63;;
39846;SDS011;25517;52.422;10.782;2024-03-08T07:01:56;54.90;;;26.67;;
39846;SDS011;25517;52.422;10.782;2024-03-08T07:04:22;54.17;;;26.58;;
39846;SDS011;25517;52.422;10.782;2024-03-08T07:06:51;55.15;;;26.70;;
39846;SDS011;25517;52.422;10.782;2024-03-08T07:09:17;50.78;;;25.40;;
39846;SDS011;25517;52.422;10.782;2024-03-08T07:11:42;52.70;;;25.88;;
39846;SDS011;25517;52.422;10.782;2024-03-08T07:14:08;61.35;;;28.27;;
39846;SDS011;25517;52.422;10.782;2024-03-08T07:16:33;51.50;;;26.85;;
39846;SDS011;25517;52.422;10.782;2024-03-08T07:19:00;46.78;;;24.27;;
39846;SDS011;25517;52.422;10.782;2024-03-08T07:21:26;46.72;;;25.10;;
39846;SDS011;25517;52.422;10.782;2024-03-08T07:23:52;53.67;;;26.42;;
39846;SDS011;25517;52.422;10.782;2024-03-08T07:26:26;50.65;;;26.45;;
39846;SDS011;25517;52.422;10.782;2024-03-08T07:28:52;49.30;;;26.77;;
39846;SDS011;25517;52.422;10.782;2024-03-08T07:31:22;47.92;;;25.65;;
39846;SDS011;25517;52.422;10.782;2024-03-08T07:33:50;56.13;;;27.50;;
39846;SDS011;25517;52.422;10.782;2024-03-08T07:36:16;52.45;;;26.73;;
39846;SDS011;25517;52.422;10.782;2024-03-08T07:38:41;46.10;;;24.95;;
39846;SDS011;25517;52.422;10.782;2024-03-08T07:41:07;51.33;;;25.42;;
39846;SDS011;25517;52.422;10.782;2024-03-08T07:43:32;49.65;;;27.70;;
39846;SDS011;25517;52.422;10.782;2024-03-08T07:45:58;51.67;;;26.85;;
39846;SDS011;25517;52.422;10.782;2024-03-08T07:48:23;53.80;;;26.95;;
39846;SDS011;25517;52.422;10.782;2024-03-08T07:50:49;54.70;;;27.13;;
39846;SDS011;25517;52.422;10.782;2024-03-08T07:53:15;54.20;;;26.20;;
39846;SDS011;25517;52.422;10.782;2024-03-08T07:55:40;56.22;;;27.02;;
39846;SDS011;25517;52.422;10.782;2024-03-08T07:58:07;50.50;;;26.02;;
39846;SDS011;25517;52.422;10.782;2024-03-08T08:00:35;49.97;;;25.85;;
39846;SDS011;25517;52.422;10.782;2024-03-08T08:03:01;55.15;;;27.00;;
39846;SDS011;25517;52.422;10.782;2024-03-08T08:05:27;54.13;;;27.25;;
39846;SDS011;25517;52.422;10.782;2024-03-08T08:07:53;48.55;;;28.02;;
39846;SDS011;25517;52.422;10.782;2024-03-08T08:10:21;51.75;;;27.05;;
39846;SDS011;25517;52.422;10.782;2024-03-08T08:12:47;53.78;;;28.33;;
39846;SDS011;25517;52.422;10.782;2024-03-08T08:15:13;55.38;;;28.48;;
39846;SDS011;25517;52.422;10.782;2024-03-08T08:17:40;48.47;;;27.77;;
39846;SDS011;25517;52.422;10.782;2024-03-08T08:20:09;54.72;;;29.35;;
39846;SDS011;25517;52.422;10.782;2024-03-08T08:22:36;53.08;;;28.77;;
39846;SDS011;25517;52.422;10.782;2024-03-08T08:25:05;52.17;;;28.98;;
39846;SDS011;25517;52.422;10.782;2024-03-08T08:27:32;53.00;;;28.35;;
39846;SDS011;25517;52.422;10.782;2024-03-08T08:29:58;46.95;;;26.70;;
39846;SDS011;25517;52.422;10.782;2024-03-08T08:32:24;51.17;;;28.40;;
39846;SDS011;25517;52.422;10.782;2024-03-08T08:34:49;52.22;;;28.52;;
39846;SDS011;25517;52.422;10.782;2024-03-08T08:37:15;47.50;;;27.73;;
39846;SDS011;25517;52.422;10.782;2024-03-08T08:39:41;53.92;;;29.58;;
39846;SDS011;25517;52.422;10.782;2024-03-08T08:42:07;47.20;;;27.98;;
39846;SDS011;25517;52.422;10.782;2024-03-08T08:44:34;51.95;;;28.92;;
39846;SDS011;25517;52.422;10.782;2024-03-08T08:47:02;50.40;;;28.55;;
39846;SDS011;25517;52.422;10.782;2024-03-08T08:49:28;49.88;;;29.17;;
39846;SDS011;25517;52.422;10.782;2024-03-08T08:51:55;48.90;;;29.05;;
39846;SDS011;25517;52.422;10.782;2024-03-08T08:54:23;50.05;;;28.75;;
39846;SDS011;25517;52.422;10.782;2024-03-08T08:56:50;43.67;;;26.90;;
39846;SDS011;25517;52.422;10.782;2024-03-08T08:59:15;43.83;;;26.33;;
39846;SDS011;25517;52.422;10.782;2024-03-08T09:01:44;41.58;;;24.88;;
39846;SDS011;25517;52.422;10.782;2024-03-08T09:04:12;38.63;;;25.23;;
39846;SDS011;25517;52.422;10.782;2024-03-08T09:06:37;36.88;;;24.58;;
39846;SDS011;25517;52.422;10.782;2024-03-08T09:09:06;36.08;;;25.05;;
39846;SDS011;25517;52.422;10.782;2024-03-08T09:11:34;32.00;;;22.25;;
39846;SDS011;25517;52.422;10.782;2024-03-08T09:13:59;35.33;;;25.00;;
39846;SDS011;25517;52.422;10.782;2024-03-08T09:16:27;29.80;;;22.67;;
39846;SDS011;25517;52.422;10.782;2024-03-08T09:18:52;37.22;;;25.80;;
39846;SDS011;25517;52.422;10.782;2024-03-08T09:21:18;37.40;;;25.92;;
39846;SDS011;25517;52.422;10.782;2024-03-08T09:23:43;32.47;;;24.48;;
39846;SDS011;25517;52.422;10.782;2024-03-08T09:26:09;29.70;;;23.73;;
39846;SDS011;25517;52.422;10.782;2024-03-08T09:28:37;33.05;;;23.75;;
39846;SDS011;25517;52.422;10.782;2024-03-08T09:31:03;31.23;;;23.63;;
39846;SDS011;25517;52.422;10.782;2024-03-08T09:33:30;28.92;;;22.27;;
39846;SDS011;25517;52.422;10.782;2024-03-08T09:35:56;31.27;;;22.85;;
39846;SDS011;25517;52.422;10.782;2024-03-08T09:38:46;31.50;;;23.55;;
39846;SDS011;25517;52.422;10.782;2024-03-08T09:41:13;31.08;;;22.90;;
39846;SDS011;25517;52.422;10.782;2024-03-08T09:43:39;30.33;;;24.65;;
39846;SDS011;25517;52.422;10.782;2024-03-08T09:46:05;28.55;;;23.67;;
39846;SDS011;25517;52.422;10.782;2024-03-08T09:48:32;28.25;;;23.27;;
39846;SDS011;25517;52.422;10.782;2024-03-08T09:50:59;29.33;;;22.92;;
39846;SDS011;25517;52.422;10.782;2024-03-08T09:53:25;33.95;;;26.08;;
39846;SDS011;25517;52.422;10.782;2024-03-08T09:55:53;29.35;;;24.67;;
39846;SDS011;25517;52.422;10.782;2024-03-08T09:58:19;31.17;;;26.55;;
39846;SDS011;25517;52.422;10.782;2024-03-08T10:00:57;29.20;;;23.42;;
39846;SDS011;25517;52.422;10.782;2024-03-08T10:03:23;33.70;;;25.08;;
39846;SDS011;25517;52.422;10.782;2024-03-08T10:05:52;29.98;;;23.33;;
39846;SDS011;25517;52.422;10.782;2024-03-08T10:08:18;33.28;;;25.25;;
39846;SDS011;25517;52.422;10.782;2024-03-08T10:10:45;30.08;;;24.23;;
39846;SDS011;25517;52.422;10.782;2024-03-08T10:13:11;32.47;;;24.60;;
39846;SDS011;25517;52.422;10.782;2024-03-08T10:15:39;30.60;;;25.20;;
39846;SDS011;25517;52.422;10.782;2024-03-08T10:18:05;29.35;;;23.23;;
39846;SDS011;25517;52.422;10.782;2024-03-08T10:20:31;29.30;;;24.05;;
39846;SDS011;25517;52.422;10.782;2024-03-08T10:23:01;28.63;;;22.48;;
39846;SDS011;25517;52.422;10.782;2024-03-08T10:25:29;29.88;;;24.10;;
39846;SDS011;25517;52.422;10.782;2024-03-08T10:27:56;29.25;;;23.88;;
39846;SDS011;25517;52.422;10.782;2024-03-08T10:30:29;25.80;;;22.10;;
39846;SDS011;25517;52.422;10.782;2024-03-08T10:32:58;30.17;;;22.95;;
39846;SDS011;25517;52.422;10.782;2024-03-08T10:35:34;27.70;;;23.67;;
39846;SDS011;25517;52.422;10.782;2024-03-08T10:37:59;29.27;;;22.98;;
39846;SDS011;25517;52.422;10.782;2024-03-08T10:40:32;26.75;;;22.92;;
39846;SDS011;25517;52.422;10.782;2024-03-08T10:42:58;24.42;;;20.27;;
39846;SDS011;25517;52.422;10.782;2024-03-08T10:48:12;27.80;;;22.33;;
39846;SDS011;25517;52.422;10.782;2024-03-08T10:50:45;31.67;;;24.98;;
39846;SDS011;25517;52.422;10.782;2024-03-08T10:53:12;30.33;;;23.63;;
39846;SDS011;25517;52.422;10.782;2024-03-08T10:55:39;25.15;;;20.60;;
39846;SDS011;25517;52.422;10.782;2024-03-08T10:58:11;25.88;;;21.38;;
39846;SDS011;25517;52.422;10.782;2024-03-08T11:00:36;32.47;;;25.20;;
39846;SDS011;25517;52.422;10.782;2024-03-08T11:03:03;28.63;;;21.73;;
39846;SDS011;25517;52.422;10.782;2024-03-08T11:05:38;25.65;;;22.13;;
39846;SDS011;25517;52.422;10.782;2024-03-08T11:08:15;27.23;;;22.23;;
39846;SDS011;25517;52.422;10.782;2024-03-08T11:10:52;29.15;;;23.02;;
39846;SDS011;25517;52.422;10.782;2024-03-08T11:16:02;29.83;;;23.80;;
39846;SDS011;25517;52.422;10.782;2024-03-08T11:18:32;28.75;;;22.77;;
39846;SDS011;25517;52.422;10.782;2024-03-08T11:21:02;25.85;;;20.05;;
39846;SDS011;25517;52.422;10.782;2024-03-08T11:23:30;29.88;;;23.30;;
39846;SDS011;25517;52.422;10.782;2024-03-08T11:25:56;30.33;;;22.88;;
39846;SDS011;25517;52.422;10.782;2024-03-08T11:28:25;28.80;;;21.52;;
39846;SDS011;25517;52.422;10.782;2024-03-08T11:34:00;26.35;;;21.33;;
39846;SDS011;25517;52.422;10.782;2024-03-08T11:36:26;26.83;;;22.52;;
39846;SDS011;25517;52.422;10.782;2024-03-08T11:38:52;25.13;;;20.80;;
39846;SDS011;25517;52.422;10.782;2024-03-08T11:41:19;26.25;;;20.92;;
39846;SDS011;25517;52.422;10.782;2024-03-08T11:43:47;28.75;;;21.33;;
39846;SDS011;25517;52.422;10.782;2024-03-08T11:46:13;26.88;;;21.58;;
39846;SDS011;25517;52.422;10.782;2024-03-08T11:48:40;23.77;;;18.13;;
39846;SDS011;25517;52.422;10.782;2024-03-08T11:51:07;25.60;;;20.83;;
39846;SDS011;25517;52.422;10.782;2024-03-08T11:53:36;26.60;;;20.48;;
39846;SDS011;25517;52.422;10.782;2024-03-08T11:56:13;26.05;;;20.08;;
39846;SDS011;25517;52.422;10.782;2024-03-08T11:58:39;24.30;;;18.73;;
39846;SDS011;25517;52.422;10.782;2024-03-08T12:01:06;19.50;;;16.65;;
39846;SDS011;25517;52.422;10.782;2024-03-08T12:03:42;23.63;;;18.98;;
39846;SDS011;25517;52.422;10.782;2024-03-08T12:06:19;24.25;;;19.40;;
39846;SDS011;25517;52.422;10.782;2024-03-08T12:08:48;20.70;;;18.15;;
39846;SDS011;25517;52.422;10.782;2024-03-08T12:11:14;23.20;;;18.02;;
39846;SDS011;25517;52.422;10.782;2024-03-08T12:13:40;21.23;;;17.17;;
39846;SDS011;25517;52.422;10.782;2024-03-08T12:16:06;20.55;;;16.70;;
39846;SDS011;25517;52.422;10.782;2024-03-08T12:18:34;23.15;;;17.20;;
39846;SDS011;25517;52.422;10.782;2024-03-08T12:21:06;23.90;;;19.20;;
39846;SDS011;25517;52.422;10.782;2024-03-08T12:26:23;21.35;;;17.77;;
39846;SDS011;25517;52.422;10.782;2024-03-08T12:28:52;24.58;;;18.90;;
39846;SDS011;25517;52.422;10.782;2024-03-08T12:31:17;24.33;;;19.85;;
39846;SDS011;25517;52.422;10.782;2024-03-08T12:33:49;27.30;;;21.08;;
39846;SDS011;25517;52.422;10.782;2024-03-08T12:36:15;27.65;;;19.85;;
39846;SDS011;25517;52.422;10.782;2024-03-08T12:38:45;26.85;;;20.35;;
39846;SDS011;25517;52.422;10.782;2024-03-08T12:41:13;28.38;;;20.13;;
39846;SDS011;25517;52.422;10.782;2024-03-08T12:43:39;31.10;;;21.60;;
39846;SDS011;25517;52.422;10.782;2024-03-08T12:46:04;30.15;;;22.17;;
39846;SDS011;25517;52.422;10.782;2024-03-08T12:48:34;26.23;;;19.88;;
39846;SDS011;25517;52.422;10.782;2024-03-08T12:51:00;26.80;;;20.60;;
39846;SDS011;25517;52.422;10.782;2024-03-08T12:53:26;26.60;;;20.33;;
39846;SDS011;25517;52.422;10.782;2024-03-08T12:55:54;25.95;;;19.42;;
39846;SDS011;25517;52.422;10.782;2024-03-08T12:58:21;30.75;;;21.90;;
39846;SDS011;25517;52.422;10.782;2024-03-08T13:00:47;30.33;;;19.40;;
39846;SDS011;25517;52.422;10.782;2024-03-08T13:03:14;26.60;;;18.58;;
39846;SDS011;25517;52.422;10.782;2024-03-08T13:05:39;28.48;;;20.00;;
39846;SDS011;25517;52.422;10.782;2024-03-08T13:08:07;31.00;;;20.80;;
39846;SDS011;25517;52.422;10.782;2024-03-08T13:10:38;32.03;;;20.35;;
39846;SDS011;25517;52.422;10.782;2024-03-08T13:13:04;30.00;;;20.27;;
39846;SDS011;25517;52.422;10.782;2024-03-08T13:15:30;29.90;;;20.70;;
39846;SDS011;25517;52.422;10.782;2024-03-08T13:17:56;31.42;;;20.33;;
39846;SDS011;25517;52.422;10.782;2024-03-08T13:20:25;29.35;;;18.27;;
39846;SDS011;25517;52.422;10.782;2024-03-08T13:22:53;27.40;;;19.50;;
39846;SDS011;25517;52.422;10.782;2024-03-08T13:25:20;30.20;;;19.33;;
39846;SDS011;25517;52.422;10.782;2024-03-08T13:28:11;26.42;;;17.60;;
39846;SDS011;25517;52.422;10.782;2024-03-08T13:30:57;29.40;;;19.45;;
39846;SDS011;25517;52.422;10.782;2024-03-08T13:34:27;27.67;;;18.67;;
39846;SDS011;25517;52.422;10.782;2024-03-08T13:37:38;27.70;;;18.08;;
39846;SDS011;25517;52.422;10.782;2024-03-08T13:40:45;23.27;;;16.70;;
39846;SDS011;25517;52.422;10.782;2024-03-08T13:43:16;27.02;;;18.73;;
39846;SDS011;25517;52.422;10.782;2024-03-08T13:45:44;26.48;;;17.65;;
39846;SDS011;25517;52.422;10.782;2024-03-08T13:48:21;29.60;;;19.77;;
39846;SDS011;25517;52.422;10.782;2024-03-08T13:50:48;27.20;;;17.65;;
39846;SDS011;25517;52.422;10.782;2024-03-08T13:53:14;26.83;;;18.58;;
39846;SDS011;25517;52.422;10.782;2024-03-08T13:55:40;22.90;;;15.02;;
39846;SDS011;25517;52.422;10.782;2024-03-08T13:58:06;25.60;;;18.17;;
39846;SDS011;25517;52.422;10.782;2024-03-08T14:00:34;23.88;;;16.63;;
39846;SDS011;25517;52.422;10.782;2024-03-08T14:03:01;24.45;;;15.73;;
39846;SDS011;25517;52.422;10.782;2024-03-08T14:05:30;24.98;;;17.58;;
39846;SDS011;25517;52.422;10.782;2024-03-08T14:07:59;24.85;;;16.35;;
39846;SDS011;25517;52.422;10.782;2024-03-08T14:10:28;24.67;;;15.82;;
39846;SDS011;25517;52.422;10.782;2024-03-08T14:12:56;26.63;;;16.67;;
39846;SDS011;25517;52.422;10.782;2024-03-08T14:15:22;23.45;;;15.88;;
39846;SDS011;25517;52.422;10.782;2024-03-08T14:17:54;21.73;;;14.88;;
39846;SDS011;25517;52.422;10.782;2024-03-08T14:20:20;24.63;;;16.20;;
39846;SDS011;25517;52.422;10.782;2024-03-08T14:22:53;22.30;;;15.10;;
39846;SDS011;25517;52.422;10.782;2024-03-08T14:25:23;24.52;;;16.25;;